Moss, Mississippi
Current Conditions -  °F | °C
As of 12:58 AM on Monday 22 Dec 2014 (Local Time) from KMEI Reporting Station
Overcast Overcast  
Wind Chill: 51°   Ceiling: 600
Heat Index: 51°   Visibility: 8mi
Dew Point: 49°   Wind: 6mph
Humidity: 92%   Direction: 130°SE
Pressure: 29.96"   Gusts: NA
Location:  32.14°N, 89.07°W
Report Text: KMEI 220658Z AUTO 13005KT 8SM BKN006 OVC016 11/09 A2996 RMK AO2 SLP142 T01060094
Loading
Personal Weather Stations






























Interactive Weather Map New forecast layout! Learn more

10-Day Weather Forecast

Advertisements
Track Severe Weather on mobile